createdAt,value
2016-08-18T00:00:16.174Z,0
2016-08-18T00:01:16.146Z,0
2016-08-18T00:02:16.128Z,0
2016-08-18T00:03:16.102Z,0
2016-08-18T00:04:16.080Z,0
2016-08-18T00:05:16.059Z,0
2016-08-18T00:06:16.038Z,0
2016-08-18T00:07:16.010Z,0
2016-08-18T00:08:15.991Z,0
2016-08-18T00:09:15.981Z,0
2016-08-18T00:10:15.945Z,0
2016-08-18T00:11:15.922Z,0
2016-08-18T00:12:15.902Z,0
2016-08-18T00:13:15.871Z,0
2016-08-18T00:14:15.857Z,0
2016-08-18T00:15:15.832Z,0
2016-08-18T00:16:15.806Z,0
2016-08-18T00:17:15.785Z,0
2016-08-18T00:18:15.761Z,0
2016-08-18T00:19:15.742Z,0
2016-08-18T00:20:15.718Z,0
2016-08-18T00:21:15.700Z,0
2016-08-18T00:22:15.672Z,0
2016-08-18T00:23:15.650Z,0
2016-08-18T00:24:15.626Z,0
2016-08-18T00:25:15.606Z,0
2016-08-18T00:26:15.576Z,0
2016-08-18T00:27:15.557Z,0
2016-08-18T00:28:15.530Z,0
2016-08-18T00:29:15.513Z,0
2016-08-18T00:30:15.485Z,0
2016-08-18T00:31:16.163Z,0
2016-08-18T00:32:15.436Z,0
2016-08-18T00:33:15.422Z,0
2016-08-18T00:34:15.411Z,0
2016-08-18T00:35:15.372Z,0
2016-08-18T00:36:15.352Z,0
2016-08-18T00:37:15.325Z,0
2016-08-18T00:38:15.302Z,0
2016-08-18T00:39:15.282Z,0
2016-08-18T00:40:15.253Z,0
2016-08-18T00:41:15.238Z,0
2016-08-18T00:42:15.210Z,0
2016-08-18T00:43:15.186Z,0
2016-08-18T00:44:15.172Z,0
2016-08-18T00:45:15.144Z,0
2016-08-18T00:46:15.121Z,0
2016-08-18T00:47:15.102Z,0
2016-08-18T00:48:15.077Z,0
2016-08-18T00:49:15.050Z,0
2016-08-18T00:50:15.028Z,0
2016-08-18T00:51:15.000Z,0
2016-08-18T00:52:14.980Z,0
2016-08-18T00:53:14.953Z,0
2016-08-18T00:54:14.938Z,0
2016-08-18T00:55:14.903Z,0
2016-08-18T00:56:14.886Z,0
2016-08-18T00:57:14.861Z,0
2016-08-18T00:58:14.839Z,0
2016-08-18T00:59:14.811Z,0
2016-08-18T01:00:14.792Z,0
2016-08-18T01:01:14.769Z,0
2016-08-18T01:02:14.745Z,0
2016-08-18T01:03:14.720Z,0
2016-08-18T01:04:14.706Z,0
2016-08-18T01:05:14.671Z,0
2016-08-18T01:06:14.656Z,0
2016-08-18T01:07:14.628Z,0
2016-08-18T01:08:14.602Z,0
2016-08-18T01:09:14.590Z,0
2016-08-18T01:10:14.559Z,0
2016-08-18T01:11:14.536Z,0
2016-08-18T01:12:14.509Z,0
2016-08-18T01:13:14.490Z,0
2016-08-18T01:14:14.463Z,0
2016-08-18T01:15:14.441Z,0
2016-08-18T01:16:14.427Z,0
2016-08-18T01:17:14.397Z,0
2016-08-18T01:18:14.375Z,0
2016-08-18T01:19:14.350Z,0
2016-08-18T01:20:14.330Z,0
2016-08-18T01:21:14.307Z,0
2016-08-18T01:22:14.281Z,0
2016-08-18T01:23:14.943Z,0
2016-08-18T01:24:14.233Z,0
2016-08-18T01:25:14.264Z,0
2016-08-18T01:26:14.187Z,0
2016-08-18T01:27:14.160Z,0
2016-08-18T01:28:14.135Z,0
2016-08-18T01:29:14.116Z,0
2016-08-18T01:30:14.091Z,0
2016-08-18T01:31:14.067Z,0
2016-08-18T01:32:14.041Z,0
2016-08-18T01:33:14.017Z,0
2016-08-18T01:34:13.993Z,0
2016-08-18T01:35:13.973Z,0
2016-08-18T01:36:13.952Z,0
2016-08-18T01:37:13.924Z,0
2016-08-18T01:38:13.901Z,0
2016-08-18T01:39:13.878Z,0
2016-08-18T01:40:13.858Z,0
2016-08-18T01:41:13.828Z,0
2016-08-18T01:42:13.819Z,0
2016-08-18T01:43:13.782Z,0
2016-08-18T01:44:13.757Z,0
2016-08-18T01:45:13.734Z,0
2016-08-18T01:46:13.711Z,0
2016-08-18T01:47:13.690Z,0
2016-08-18T01:48:13.664Z,0
2016-08-18T01:49:13.645Z,0
2016-08-18T01:50:13.623Z,0
2016-08-18T01:51:13.600Z,0
2016-08-18T01:52:13.565Z,0
2016-08-18T01:53:13.549Z,0
2016-08-18T01:54:14.219Z,0
2016-08-18T01:55:13.499Z,0
2016-08-18T01:56:13.487Z,0
2016-08-18T01:57:13.450Z,0
2016-08-18T01:58:13.426Z,0
2016-08-18T01:59:13.403Z,0
2016-08-18T02:00:13.376Z,0
2016-08-18T02:01:13.350Z,0
2016-08-18T02:02:13.328Z,0
2016-08-18T02:03:13.305Z,0
2016-08-18T02:04:13.284Z,0
2016-08-18T02:05:13.261Z,0
2016-08-18T02:06:13.236Z,0
2016-08-18T02:07:13.218Z,0
2016-08-18T02:08:13.189Z,0
2016-08-18T02:09:13.172Z,0
2016-08-18T02:10:45.247Z,0
2016-08-18T02:11:13.114Z,0
2016-08-18T02:12:13.087Z,0
2016-08-18T02:13:13.065Z,0
2016-08-18T02:14:13.039Z,0
2016-08-18T02:15:13.019Z,0
2016-08-18T02:16:12.994Z,0
2016-08-18T02:17:12.968Z,0
2016-08-18T02:18:12.947Z,0
2016-08-18T02:19:12.925Z,0
2016-08-18T02:20:12.899Z,0
2016-08-18T02:21:12.874Z,0
2016-08-18T02:22:12.850Z,0
2016-08-18T02:23:12.825Z,0
2016-08-18T02:24:12.801Z,0
2016-08-18T02:25:12.784Z,0
2016-08-18T02:26:12.752Z,0
2016-08-18T02:27:12.726Z,0
2016-08-18T02:28:12.705Z,0
2016-08-18T02:29:12.677Z,0
2016-08-18T02:30:12.664Z,0
2016-08-18T02:31:12.633Z,0
2016-08-18T02:32:12.613Z,0
2016-08-18T02:33:12.582Z,0
2016-08-18T02:34:12.560Z,0
2016-08-18T02:35:12.536Z,0
2016-08-18T02:36:12.516Z,0
2016-08-18T02:37:12.488Z,0
2016-08-18T02:38:12.464Z,0
2016-08-18T02:39:12.444Z,0
2016-08-18T02:40:12.415Z,0
2016-08-18T02:41:12.391Z,0
2016-08-18T02:42:12.366Z,0
2016-08-18T02:43:12.341Z,0
2016-08-18T02:44:12.318Z,0
2016-08-18T02:45:12.297Z,0
2016-08-18T02:46:12.269Z,0
2016-08-18T02:47:12.244Z,0
2016-08-18T02:48:12.220Z,0
2016-08-18T02:49:12.197Z,0
2016-08-18T02:50:12.184Z,0
2016-08-18T02:51:12.160Z,0
2016-08-18T02:52:12.124Z,0
2016-08-18T02:53:12.111Z,0
2016-08-18T02:54:12.073Z,0
2016-08-18T02:55:12.050Z,0
2016-08-18T02:56:12.026Z,0
2016-08-18T02:57:12.005Z,0
2016-08-18T02:58:11.974Z,0
2016-08-18T02:59:11.953Z,0
2016-08-18T03:00:11.926Z,0
2016-08-18T03:01:11.907Z,0
2016-08-18T03:02:11.877Z,0
2016-08-18T03:03:11.874Z,0
2016-08-18T03:04:11.827Z,0
2016-08-18T03:05:11.806Z,0
2016-08-18T03:06:11.782Z,0
2016-08-18T03:07:11.758Z,0
2016-08-18T03:08:11.734Z,0
2016-08-18T03:09:11.711Z,0
2016-08-18T03:10:11.692Z,0
2016-08-18T03:11:11.662Z,0
2016-08-18T03:12:11.637Z,0
2016-08-18T03:13:11.615Z,0
2016-08-18T03:14:11.590Z,0
2016-08-18T03:15:11.564Z,0
2016-08-18T03:16:11.540Z,0
2016-08-18T03:17:11.518Z,0
2016-08-18T03:18:11.492Z,0
2016-08-18T03:19:11.468Z,0
2016-08-18T03:20:11.444Z,0
2016-08-18T03:21:11.434Z,0
2016-08-18T03:22:11.395Z,0
2016-08-18T03:23:11.370Z,0
2016-08-18T03:24:11.346Z,0
2016-08-18T03:25:11.326Z,0
2016-08-18T03:26:11.299Z,0
2016-08-18T03:27:11.275Z,0
2016-08-18T03:28:11.253Z,0
2016-08-18T03:29:11.235Z,0
2016-08-18T03:30:11.203Z,0
2016-08-18T03:31:11.177Z,0
2016-08-18T03:32:11.150Z,0
2016-08-18T03:33:11.126Z,0
2016-08-18T03:34:11.101Z,0
2016-08-18T03:35:11.079Z,0
2016-08-18T03:36:11.053Z,0
2016-08-18T03:37:11.040Z,0
2016-08-18T03:38:11.004Z,0
2016-08-18T03:39:10.980Z,0
2016-08-18T03:40:10.961Z,0
2016-08-18T03:41:10.931Z,4
2016-08-18T03:42:10.906Z,4
2016-08-18T03:43:10.883Z,4
2016-08-18T03:44:10.860Z,0
2016-08-18T03:45:10.840Z,4
2016-08-18T03:46:10.810Z,4
2016-08-18T03:47:10.788Z,8
2016-08-18T03:48:10.757Z,4
2016-08-18T03:49:10.732Z,8
2016-08-18T03:50:10.705Z,8
2016-08-18T03:51:10.685Z,12
2016-08-18T03:52:10.671Z,12
2016-08-18T03:53:10.636Z,12
2016-08-18T03:54:10.615Z,16
2016-08-18T03:55:10.592Z,16
2016-08-18T03:56:10.565Z,20
2016-08-18T03:57:10.536Z,24
2016-08-18T03:58:10.516Z,28
2016-08-18T03:59:10.489Z,28
2016-08-18T04:00:10.461Z,36
2016-08-18T04:01:11.133Z,40
2016-08-18T04:02:11.108Z,48
2016-08-18T04:03:10.402Z,56
2016-08-18T04:04:10.366Z,64
2016-08-18T04:05:10.340Z,76
2016-08-18T04:06:10.318Z,84
2016-08-18T04:07:10.294Z,100
2016-08-18T04:08:10.267Z,112
2016-08-18T04:09:10.238Z,128
2016-08-18T04:10:10.219Z,144
2016-08-18T04:11:10.188Z,164
2016-08-18T04:12:10.169Z,180
2016-08-18T04:13:10.140Z,204
2016-08-18T04:14:10.119Z,224
2016-08-18T04:15:10.094Z,252
2016-08-18T04:16:10.070Z,276
2016-08-18T04:17:10.046Z,304
2016-08-18T04:18:10.017Z,340
2016-08-18T04:19:09.997Z,368
2016-08-18T04:20:09.971Z,404
2016-08-18T04:21:09.958Z,440
2016-08-18T04:22:10.619Z,480
2016-08-18T04:23:09.896Z,520
2016-08-18T04:24:09.873Z,564
2016-08-18T04:25:09.846Z,604
2016-08-18T04:26:09.824Z,652
2016-08-18T04:27:09.797Z,704
2016-08-18T04:28:09.772Z,756
2016-08-18T04:29:09.750Z,816
2016-08-18T04:30:09.719Z,868
2016-08-18T04:31:09.707Z,924
2016-08-18T04:32:09.671Z,988
2016-08-18T04:33:09.651Z,1044
2016-08-18T04:34:09.622Z,1104
2016-08-18T04:35:09.602Z,1164
2016-08-18T04:36:09.571Z,1224
2016-08-18T04:37:09.549Z,1288
2016-08-18T04:38:09.798Z,1352
2016-08-18T04:39:09.502Z,1412
2016-08-18T04:40:09.475Z,1480
2016-08-18T04:41:09.447Z,1544
2016-08-18T04:42:09.425Z,1604
2016-08-18T04:43:09.397Z,1664
2016-08-18T04:44:09.378Z,1728
2016-08-18T04:45:09.354Z,1788
2016-08-18T04:46:09.327Z,1852
2016-08-18T04:47:09.299Z,1916
2016-08-18T04:48:09.695Z,1980
2016-08-18T04:49:09.624Z,2040
2016-08-18T04:50:09.231Z,2100
2016-08-18T04:51:09.202Z,2164
2016-08-18T04:52:09.181Z,2224
2016-08-18T04:53:09.156Z,2284
2016-08-18T04:54:09.132Z,2344
2016-08-18T04:55:09.105Z,2408
2016-08-18T04:56:09.082Z,2468
2016-08-18T04:57:09.393Z,2528
2016-08-18T04:58:09.037Z,2580
2016-08-18T04:59:09.519Z,2640
2016-08-18T05:00:08.986Z,2692
2016-08-18T05:01:08.964Z,2748
2016-08-18T05:02:09.786Z,2796
2016-08-18T05:03:08.914Z,2848
2016-08-18T05:04:08.903Z,2896
2016-08-18T05:05:08.868Z,2944
2016-08-18T05:06:08.837Z,2988
2016-08-18T05:07:08.823Z,3040
2016-08-18T05:08:08.798Z,3084
2016-08-18T05:09:09.229Z,3132
2016-08-18T05:10:09.050Z,3176
2016-08-18T05:11:08.717Z,3224
2016-08-18T05:12:08.692Z,3268
2016-08-18T05:13:08.667Z,3312
2016-08-18T05:14:09.349Z,3352
2016-08-18T05:15:08.619Z,3396
2016-08-18T05:16:08.623Z,3436
2016-08-18T05:17:08.731Z,3476
2016-08-18T05:18:08.542Z,3520
2016-08-18T05:19:10.333Z,3564
2016-08-18T05:20:09.364Z,3600
2016-08-18T05:21:08.472Z,3640
2016-08-18T05:22:08.453Z,3676
2016-08-18T05:23:08.425Z,3712
2016-08-18T05:24:08.399Z,3744
2016-08-18T05:25:08.382Z,3776
2016-08-18T05:26:08.457Z,3812
2016-08-18T05:27:08.325Z,3848
2016-08-18T05:28:08.377Z,3880
2016-08-18T05:29:08.279Z,3920
2016-08-18T05:30:08.256Z,3956
2016-08-18T05:31:08.364Z,3992
2016-08-18T05:32:08.205Z,4032
2016-08-18T05:33:08.182Z,4068
2016-08-18T05:34:08.922Z,4108
2016-08-18T05:35:08.147Z,4144
2016-08-18T05:36:08.113Z,4184
2016-08-18T05:37:08.100Z,4224
2016-08-18T05:38:08.169Z,4268
2016-08-18T05:39:08.039Z,4316
2016-08-18T05:40:08.017Z,4372
2016-08-18T05:41:08.108Z,4432
2016-08-18T05:42:07.967Z,4496
2016-08-18T05:43:07.944Z,4560
2016-08-18T05:44:08.069Z,4612
2016-08-18T05:45:08.584Z,4668
2016-08-18T05:46:07.872Z,4720
2016-08-18T05:47:07.953Z,4768
2016-08-18T05:48:08.407Z,4816
2016-08-18T05:49:07.799Z,4860
2016-08-18T05:50:07.792Z,4904
2016-08-18T05:51:07.754Z,4948
2016-08-18T05:52:07.739Z,4992
2016-08-18T05:53:08.449Z,5036
2016-08-18T05:54:11.062Z,5076
2016-08-18T05:55:08.540Z,5128
2016-08-18T05:56:08.456Z,5168
2016-08-18T05:57:08.052Z,5204
2016-08-18T05:58:07.588Z,5240
2016-08-18T05:59:07.629Z,5260
2016-08-18T06:00:07.574Z,5292
2016-08-18T06:01:07.516Z,5328
2016-08-18T06:02:07.558Z,5352
2016-08-18T06:03:07.775Z,5372
2016-08-18T06:04:07.833Z,5392
2016-08-18T06:05:07.825Z,5416
2016-08-18T06:06:07.513Z,5440
2016-08-18T06:07:07.742Z,5456
2016-08-18T06:08:07.716Z,5508
2016-08-18T06:09:07.705Z,7020
2016-08-18T06:10:08.012Z,11008
2016-08-18T06:11:07.284Z,14968
2016-08-18T06:12:07.261Z,17248
2016-08-18T06:13:07.243Z,17664
2016-08-18T06:14:07.239Z,17760
2016-08-18T06:15:07.241Z,18272
2016-08-18T06:16:07.170Z,19168
2016-08-18T06:17:08.017Z,19200
2016-08-18T06:18:07.621Z,18944
2016-08-18T06:19:07.997Z,19008
2016-08-18T06:20:07.352Z,16992
2016-08-18T06:21:07.063Z,11024
2016-08-18T06:22:07.040Z,6180
2016-08-18T06:23:07.071Z,5900
2016-08-18T06:24:07.021Z,5940
2016-08-18T06:25:12.930Z,6524
2016-08-18T06:26:06.969Z,11424
2016-08-18T06:27:07.030Z,19168
2016-08-18T06:28:06.947Z,22688
2016-08-18T06:29:06.898Z,22848
2016-08-18T06:30:08.771Z,23104
2016-08-18T06:31:06.884Z,23680
2016-08-18T06:32:08.441Z,24128
2016-08-18T06:33:06.823Z,24416
2016-08-18T06:34:07.939Z,23904
2016-08-18T06:35:06.831Z,24288
2016-08-18T06:36:06.766Z,24832
2016-08-18T06:37:06.820Z,25184
2016-08-18T06:38:07.079Z,25280
2016-08-18T06:39:06.801Z,25472
2016-08-18T06:40:07.983Z,25952
2016-08-18T06:41:06.656Z,26144
2016-08-18T06:42:07.330Z,26048
2016-08-18T06:43:06.633Z,25632
2016-08-18T06:44:06.606Z,26112
2016-08-18T06:45:06.637Z,26176
2016-08-18T06:46:07.293Z,27264
2016-08-18T06:47:06.581Z,26912
2016-08-18T06:48:06.632Z,25984
2016-08-18T06:49:06.603Z,27232
2016-08-18T06:50:06.504Z,28512
2016-08-18T06:51:06.474Z,28832
2016-08-18T06:52:06.463Z,28128
2016-08-18T06:53:06.440Z,28384
2016-08-18T06:54:06.477Z,27168
2016-08-18T06:55:06.418Z,23584
2016-08-18T06:56:06.392Z,22944
2016-08-18T06:57:06.383Z,25280
2016-08-18T06:58:08.458Z,25952
2016-08-18T06:59:06.364Z,25504
2016-08-18T07:00:06.694Z,25152
2016-08-18T07:01:06.364Z,23072
2016-08-18T07:02:06.291Z,22016
2016-08-18T07:03:06.277Z,20832
2016-08-18T07:04:06.261Z,19136
2016-08-18T07:05:06.308Z,16788
2016-08-18T07:06:06.939Z,14320
2016-08-18T07:07:06.213Z,11828
2016-08-18T07:08:06.203Z,9080
2016-08-18T07:09:06.566Z,7128
2016-08-18T07:10:06.164Z,7012
2016-08-18T07:11:06.167Z,7368
2016-08-18T07:12:06.146Z,7952
2016-08-18T07:13:06.127Z,9128
2016-08-18T07:14:06.323Z,12280
2016-08-18T07:15:06.124Z,20320
2016-08-18T07:16:06.096Z,30240
2016-08-18T07:17:06.336Z,48224
2016-08-18T07:18:06.059Z,69280
2016-08-18T07:19:07.021Z,68320
2016-08-18T07:20:06.536Z,47424
2016-08-18T07:21:07.623Z,35488
2016-08-18T07:22:06.021Z,35008
2016-08-18T07:23:07.301Z,33088
2016-08-18T07:24:05.944Z,32640
2016-08-18T07:25:06.774Z,33920
2016-08-18T07:26:06.328Z,32576
2016-08-18T07:27:06.306Z,32768
2016-08-18T07:28:06.873Z,32224
2016-08-18T07:29:06.718Z,32000
2016-08-18T07:30:07.207Z,30656
2016-08-18T07:31:07.595Z,30656
2016-08-18T07:32:06.008Z,30624
2016-08-18T07:33:06.857Z,25760
2016-08-18T07:34:06.697Z,18304
2016-08-18T07:35:06.364Z,21728
2016-08-18T07:36:07.384Z,29952
2016-08-18T07:37:07.088Z,30656
2016-08-18T07:38:07.157Z,25056
2016-08-18T07:39:06.500Z,24736
2016-08-18T07:40:07.796Z,34592
2016-08-18T07:41:14.397Z,28704
2016-08-18T07:42:06.196Z,22592
2016-08-18T07:43:05.710Z,27264
2016-08-18T07:44:07.216Z,36576
2016-08-18T07:45:06.279Z,37568
2016-08-18T07:46:07.805Z,37728
2016-08-18T07:47:06.788Z,37728
2016-08-18T07:48:06.798Z,37472
2016-08-18T07:49:06.478Z,31936
2016-08-18T07:50:08.734Z,23200
2016-08-18T07:51:09.599Z,30304
2016-08-18T07:52:07.912Z,39104
2016-08-18T07:53:06.028Z,39616
2016-08-18T07:54:07.346Z,30592
2016-08-18T07:55:07.325Z,17920
2016-08-18T07:56:06.028Z,15568
2016-08-18T07:57:06.356Z,30752
2016-08-18T07:58:05.473Z,42272
2016-08-18T07:59:06.362Z,42048
2016-08-18T08:00:07.085Z,42816
2016-08-18T08:01:05.867Z,43520
2016-08-18T08:02:06.200Z,44256
2016-08-18T08:03:05.887Z,42208
2016-08-18T08:04:05.748Z,40864
2016-08-18T08:05:06.893Z,43136
2016-08-18T08:06:06.831Z,45056
2016-08-18T08:07:06.131Z,45216
2016-08-18T08:08:06.213Z,45696
2016-08-18T08:09:05.328Z,46336
2016-08-18T08:10:05.368Z,46400
2016-08-18T08:11:05.306Z,46592
2016-08-18T08:12:05.627Z,46944
2016-08-18T08:13:06.082Z,48192
2016-08-18T08:14:05.417Z,49504
2016-08-18T08:15:05.271Z,50592
2016-08-18T08:16:05.365Z,49856
2016-08-18T08:17:05.403Z,47328
2016-08-18T08:18:05.227Z,49568
2016-08-18T08:19:06.275Z,51072
2016-08-18T08:20:05.916Z,51456
2016-08-18T08:21:06.007Z,51264
2016-08-18T08:22:06.451Z,50880
2016-08-18T08:23:05.615Z,51840
2016-08-18T08:24:05.179Z,53632
2016-08-18T08:25:05.490Z,54368
2016-08-18T08:26:06.089Z,53696
2016-08-18T08:27:05.373Z,54304
2016-08-18T08:28:08.704Z,55040
2016-08-18T08:29:09.703Z,53824
2016-08-18T08:30:11.679Z,53440
2016-08-18T08:31:07.560Z,55168
2016-08-18T08:32:06.393Z,52672
2016-08-18T08:33:06.952Z,52416
2016-08-18T08:34:05.834Z,52672
2016-08-18T08:35:06.222Z,54080
2016-08-18T08:36:07.600Z,56032
2016-08-18T08:37:06.028Z,55168
2016-08-18T08:38:08.298Z,55520
2016-08-18T08:39:08.306Z,57856
2016-08-18T08:40:09.048Z,54848
2016-08-18T08:41:05.269Z,54144
2016-08-18T08:42:05.080Z,57632
2016-08-18T08:43:05.028Z,58912
2016-08-18T08:44:05.070Z,60512
2016-08-18T08:45:05.691Z,58656
2016-08-18T08:46:05.423Z,59104
2016-08-18T08:47:05.216Z,58688
2016-08-18T08:48:05.659Z,59104
2016-08-18T08:49:05.819Z,58528
2016-08-18T08:50:04.943Z,57920
2016-08-18T08:51:04.919Z,58304
2016-08-18T08:52:04.953Z,59840
2016-08-18T08:53:05.091Z,60288
2016-08-18T08:54:07.868Z,60000
2016-08-18T08:55:09.614Z,57024
2016-08-18T08:56:05.705Z,55456
2016-08-18T08:57:05.779Z,59008
2016-08-18T08:58:04.870Z,60224
2016-08-18T08:59:05.455Z,61216
2016-08-18T09:00:05.970Z,61664
2016-08-18T09:01:05.142Z,61696
2016-08-18T09:02:04.827Z,60672
2016-08-18T09:03:05.021Z,63424
2016-08-18T09:04:06.987Z,63776
2016-08-18T09:05:05.028Z,59776
2016-08-18T09:06:05.806Z,58272
2016-08-18T09:07:05.961Z,60992
2016-08-18T09:08:04.908Z,62848
2016-08-18T09:09:05.553Z,60960
2016-08-18T09:10:06.314Z,61728
2016-08-18T09:11:04.771Z,63104
2016-08-18T09:12:04.755Z,63488
2016-08-18T09:13:05.019Z,60640
2016-08-18T09:14:04.946Z,58464
2016-08-18T09:15:04.795Z,60320
2016-08-18T09:16:05.484Z,62912
2016-08-18T09:17:04.723Z,64352
2016-08-18T09:18:05.272Z,62944
2016-08-18T09:19:04.707Z,64192
2016-08-18T09:20:05.996Z,66688
2016-08-18T09:21:05.633Z,67808
2016-08-18T09:22:05.104Z,64832
2016-08-18T09:23:04.919Z,63328
2016-08-18T09:24:04.797Z,62464
2016-08-18T09:25:04.814Z,56256
2016-08-18T09:26:05.653Z,50944
2016-08-18T09:27:04.662Z,44096
2016-08-18T09:28:06.015Z,34880
2016-08-18T09:29:06.169Z,29152
2016-08-18T09:30:06.768Z,22304
2016-08-18T09:31:07.991Z,16788
2016-08-18T09:32:05.739Z,13404
2016-08-18T09:33:05.259Z,10020
2016-08-18T09:34:06.164Z,9164
2016-08-18T09:35:06.248Z,8992
2016-08-18T09:36:05.356Z,8888
2016-08-18T09:37:04.764Z,8776
2016-08-18T09:38:06.187Z,8664
2016-08-18T09:39:04.536Z,8548
2016-08-18T09:40:05.369Z,8412
2016-08-18T09:41:04.878Z,8316
2016-08-18T09:42:04.542Z,8200
2016-08-18T09:43:04.630Z,8072
2016-08-18T09:44:07.388Z,7932
2016-08-18T09:45:05.380Z,7832
2016-08-18T09:46:04.448Z,7760
2016-08-18T09:47:05.575Z,7676
2016-08-18T09:48:06.035Z,7608
2016-08-18T09:49:04.415Z,7568
2016-08-18T09:50:05.827Z,7560
2016-08-18T09:51:05.320Z,7568
2016-08-18T09:52:04.367Z,7568
2016-08-18T09:53:05.420Z,7564
2016-08-18T09:54:06.072Z,7584
2016-08-18T09:55:08.852Z,7592
2016-08-18T09:56:06.300Z,7608
2016-08-18T09:57:06.105Z,7636
2016-08-18T09:58:05.772Z,7672
2016-08-18T09:59:07.194Z,7704
2016-08-18T10:00:05.796Z,7744
2016-08-18T10:01:05.931Z,7752
2016-08-18T10:02:05.705Z,7748
2016-08-18T10:03:05.883Z,7736
2016-08-18T10:04:05.834Z,7724
2016-08-18T10:05:11.889Z,7680
2016-08-18T10:06:05.906Z,7636
2016-08-18T10:07:05.736Z,7600
2016-08-18T10:08:05.936Z,7576
2016-08-18T10:09:05.682Z,7560
2016-08-18T10:10:05.091Z,7584
2016-08-18T10:11:04.199Z,7620
2016-08-18T10:12:05.025Z,7656
2016-08-18T10:13:04.401Z,7680
2016-08-18T10:14:04.126Z,7680
2016-08-18T10:15:04.336Z,7664
2016-08-18T10:16:04.370Z,7652
2016-08-18T10:17:04.781Z,7636
2016-08-18T10:18:04.202Z,7616
2016-08-18T10:19:04.459Z,7620
2016-08-18T10:20:04.767Z,7632
2016-08-18T10:21:05.632Z,7652
2016-08-18T10:22:03.922Z,7660
2016-08-18T10:23:04.350Z,7660
2016-08-18T10:24:03.890Z,7676
2016-08-18T10:25:03.876Z,7692
2016-08-18T10:26:03.913Z,7708
2016-08-18T10:27:04.196Z,7728
2016-08-18T10:28:04.574Z,7776
2016-08-18T10:29:05.026Z,7820
2016-08-18T10:30:04.321Z,7832
2016-08-18T10:31:03.895Z,7840
2016-08-18T10:32:05.016Z,7860
2016-08-18T10:33:04.265Z,7888
2016-08-18T10:34:04.115Z,7904
2016-08-18T10:35:03.939Z,7896
2016-08-18T10:36:03.709Z,7884
2016-08-18T10:37:03.899Z,7872
2016-08-18T10:38:05.334Z,7860
2016-08-18T10:39:03.756Z,7864
2016-08-18T10:40:03.654Z,7884
2016-08-18T10:41:03.626Z,7916
2016-08-18T10:42:04.071Z,7936
2016-08-18T10:43:04.822Z,7948
2016-08-18T10:44:03.627Z,7956
2016-08-18T10:45:03.844Z,7968
2016-08-18T10:46:04.706Z,7984
2016-08-18T10:47:03.783Z,7996
2016-08-18T10:48:03.551Z,7996
2016-08-18T10:49:03.525Z,7996
2016-08-18T10:50:04.199Z,7988
2016-08-18T10:51:03.518Z,7996
2016-08-18T10:52:03.484Z,8012
2016-08-18T10:53:03.452Z,8024
2016-08-18T10:54:03.457Z,8032
2016-08-18T10:55:03.612Z,8044
2016-08-18T10:56:03.514Z,8068
2016-08-18T10:57:03.395Z,8072
2016-08-18T10:58:04.397Z,8088
2016-08-18T10:59:04.046Z,8104
2016-08-18T11:00:03.347Z,8116
2016-08-18T11:01:04.097Z,8100
2016-08-18T11:02:03.313Z,8084
2016-08-18T11:03:03.299Z,8076
2016-08-18T11:04:03.279Z,8076
2016-08-18T11:05:03.411Z,8080
2016-08-18T11:06:03.262Z,8084
2016-08-18T11:07:03.251Z,8088
2016-08-18T11:08:04.017Z,8100
2016-08-18T11:09:03.921Z,8128
2016-08-18T11:10:04.607Z,8156
2016-08-18T11:11:03.688Z,8188
2016-08-18T11:12:03.166Z,8212
2016-08-18T11:13:03.253Z,8252
2016-08-18T11:14:03.138Z,8300
2016-08-18T11:15:03.114Z,8332
2016-08-18T11:16:03.101Z,8364
2016-08-18T11:17:03.532Z,8392
2016-08-18T11:18:03.074Z,8416
2016-08-18T11:19:03.552Z,8444
2016-08-18T11:20:03.865Z,8472
2016-08-18T11:21:03.029Z,8472
2016-08-18T11:22:03.319Z,8468
2016-08-18T11:23:03.000Z,8452
2016-08-18T11:24:02.979Z,8448
2016-08-18T11:25:02.990Z,8444
2016-08-18T11:26:02.952Z,8460
2016-08-18T11:27:02.940Z,8460
2016-08-18T11:28:02.924Z,8484
2016-08-18T11:29:03.278Z,8500
2016-08-18T11:30:03.567Z,8528
2016-08-18T11:31:03.487Z,8560
2016-08-18T11:32:03.588Z,8580
2016-08-18T11:33:03.731Z,8604
2016-08-18T11:34:03.739Z,8632
2016-08-18T11:35:04.591Z,8652
2016-08-18T11:36:04.146Z,8660
2016-08-18T11:37:03.728Z,8672
2016-08-18T11:38:04.333Z,8708
2016-08-18T11:39:03.769Z,8760
2016-08-18T11:40:03.976Z,8812
2016-08-18T11:41:03.673Z,8868
2016-08-18T11:42:03.874Z,8948
2016-08-18T11:43:03.687Z,9016
2016-08-18T11:44:04.603Z,9080
2016-08-18T11:45:04.977Z,9152
2016-08-18T11:46:02.838Z,9208
2016-08-18T11:47:03.134Z,9220
2016-08-18T11:48:04.028Z,9220
2016-08-18T11:49:03.267Z,9204
2016-08-18T11:50:05.976Z,9188
2016-08-18T11:51:03.032Z,9180
2016-08-18T11:52:02.576Z,9176
2016-08-18T11:53:03.457Z,9176
2016-08-18T11:54:02.842Z,9192
2016-08-18T11:55:03.229Z,9224
2016-08-18T11:56:03.208Z,9284
2016-08-18T11:57:04.090Z,9332
2016-08-18T12:12:03.584Z,9604
2016-08-18T12:13:03.544Z,9568
2016-08-18T12:14:04.947Z,9548
2016-08-18T12:15:04.115Z,9556
2016-08-18T12:16:04.127Z,9588
2016-08-18T12:17:04.266Z,9624
2016-08-18T12:18:04.236Z,9672
2016-08-18T12:19:04.294Z,9708
2016-08-18T12:20:04.044Z,9748
2016-08-18T12:21:04.684Z,9760
2016-08-18T12:22:04.258Z,9764
2016-08-18T12:23:05.400Z,9756
2016-08-18T12:24:03.988Z,9752
2016-08-18T12:25:04.032Z,9744
2016-08-18T12:26:04.134Z,9740
2016-08-18T12:27:06.285Z,9712
2016-08-18T12:28:03.932Z,9664
2016-08-18T12:29:04.321Z,9608
2016-08-18T12:30:03.895Z,9572
2016-08-18T12:31:03.893Z,9532
2016-08-18T12:32:03.869Z,9512
2016-08-18T12:33:04.189Z,9520
2016-08-18T12:34:03.861Z,9524
2016-08-18T12:35:03.822Z,9524
2016-08-18T12:36:04.033Z,9540
2016-08-18T12:37:03.848Z,9580
2016-08-18T12:38:03.780Z,9648
2016-08-18T12:39:03.765Z,9732
2016-08-18T12:40:03.804Z,9808
2016-08-18T12:41:03.776Z,9856
2016-08-18T12:42:03.770Z,9888
2016-08-18T12:43:05.141Z,9920
2016-08-18T12:44:05.273Z,9972
2016-08-18T12:45:05.567Z,10008
2016-08-18T12:46:05.562Z,10044
2016-08-18T12:47:05.467Z,10080
2016-08-18T12:48:05.341Z,10116
2016-08-18T12:49:05.444Z,10144
2016-08-18T12:50:05.337Z,10148
2016-08-18T12:51:05.562Z,10176
2016-08-18T12:52:05.309Z,10220
2016-08-18T12:53:05.544Z,10236
2016-08-18T12:54:05.051Z,10260
2016-08-18T12:55:06.737Z,10272
2016-08-18T12:56:05.436Z,10320
2016-08-18T12:57:05.327Z,10392
2016-08-18T12:58:04.824Z,10460
2016-08-18T12:59:05.603Z,10512
2016-08-18T13:00:05.232Z,10548
2016-08-18T13:01:04.913Z,10616
2016-08-18T13:02:04.901Z,10652
2016-08-18T13:03:04.700Z,10680
2016-08-18T13:04:03.432Z,10732
2016-08-18T13:05:03.644Z,10800
2016-08-18T13:06:03.648Z,10820
2016-08-18T13:07:04.419Z,10824
2016-08-18T13:08:03.371Z,10824
2016-08-18T13:09:03.420Z,10828
2016-08-18T13:10:03.450Z,10812
2016-08-18T13:11:03.417Z,10800
2016-08-18T13:12:03.789Z,10840
2016-08-18T13:13:03.306Z,10892
2016-08-18T13:14:03.320Z,10948
2016-08-18T13:15:03.494Z,11008
2016-08-18T13:16:03.265Z,11044
2016-08-18T13:17:03.387Z,11080
2016-08-18T13:18:03.253Z,11136
2016-08-18T13:19:03.634Z,11184
2016-08-18T13:20:03.316Z,11196
2016-08-18T13:21:03.199Z,11216
2016-08-18T13:22:03.183Z,11240
2016-08-18T13:23:03.170Z,11304
2016-08-18T13:24:03.160Z,11352
2016-08-18T13:25:03.147Z,11364
2016-08-18T13:26:03.129Z,11384
2016-08-18T13:27:03.109Z,11544
2016-08-18T13:28:03.362Z,11524
2016-08-18T13:29:03.086Z,11388
2016-08-18T13:30:03.075Z,11060
2016-08-18T13:31:03.063Z,10912
2016-08-18T13:32:03.051Z,10844
2016-08-18T13:33:03.144Z,10804
2016-08-18T13:34:03.721Z,10796
2016-08-18T13:35:03.004Z,10824
2016-08-18T13:36:03.002Z,10876
2016-08-18T13:37:02.984Z,10928
2016-08-18T13:38:02.966Z,10964
2016-08-18T13:39:02.952Z,11036
2016-08-18T13:40:03.238Z,11132
2016-08-18T13:41:02.934Z,11208
2016-08-18T13:42:04.300Z,11220
2016-08-18T13:43:03.195Z,11264
2016-08-18T13:44:02.888Z,11324
2016-08-18T13:45:02.964Z,11400
2016-08-18T13:46:02.864Z,11456
2016-08-18T13:47:02.866Z,11544
2016-08-18T13:48:02.832Z,11664